Uruara, Brazil
Current Conditions -  °F | °C
As of 9:00 PM on Wednesday 22 Oct 2014 (Local Time) from SBSN Reporting Station
Broken Clouds Broken Clouds  
Wind Chill: 79°   Ceiling: 10000
Heat Index: 83°   Visibility: 6mi
Dew Point: 77°   Wind: 2mph
Humidity: 94%   Direction: 150°SSE
Pressure: 29.88"   Gusts: NA
Location:  3.72°S, 53.74°W
Report Text: SBSN 230000Z 15002KT 9999 FEW015 BKN100 26/25 Q1012
Loading
Personal Weather Stations






























Interactive Weather Map
Tropical Storm Tracking
New forecast layout! Learn more

10-Day Weather Forecast

Advertisements
Track Severe Weather on mobile